sensor_id;sensor_type;location;lat;lon;timestamp;P1;durP1;ratioP1;P2;durP2;ratioP2
14722;SDS011;7452;55.594;12.986;2022-10-01T00:02:26;14.63;;;12.40;;
14722;SDS011;7452;55.594;12.986;2022-10-01T00:04:55;14.23;;;12.50;;
14722;SDS011;7452;55.594;12.986;2022-10-01T00:07:27;13.93;;;12.53;;
14722;SDS011;7452;55.594;12.986;2022-10-01T00:09:55;17.03;;;13.07;;
14722;SDS011;7452;55.594;12.986;2022-10-01T00:12:26;15.93;;;12.90;;
14722;SDS011;7452;55.594;12.986;2022-10-01T00:14:56;14.10;;;12.77;;
14722;SDS011;7452;55.594;12.986;2022-10-01T00:17:26;15.03;;;13.13;;
14722;SDS011;7452;55.594;12.986;2022-10-01T00:19:54;14.00;;;12.03;;
14722;SDS011;7452;55.594;12.986;2022-10-01T00:22:22;13.67;;;12.13;;
14722;SDS011;7452;55.594;12.986;2022-10-01T00:24:50;13.10;;;11.73;;
14722;SDS011;7452;55.594;12.986;2022-10-01T00:27:18;13.70;;;12.30;;
14722;SDS011;7452;55.594;12.986;2022-10-01T00:29:47;13.10;;;11.80;;
14722;SDS011;7452;55.594;12.986;2022-10-01T00:32:14;14.37;;;12.97;;
14722;SDS011;7452;55.594;12.986;2022-10-01T00:34:47;13.17;;;11.97;;
14722;SDS011;7452;55.594;12.986;2022-10-01T00:37:16;14.73;;;12.33;;
14722;SDS011;7452;55.594;12.986;2022-10-01T00:39:46;13.43;;;12.07;;
14722;SDS011;7452;55.594;12.986;2022-10-01T00:42:15;14.53;;;11.60;;
14722;SDS011;7452;55.594;12.986;2022-10-01T00:44:44;12.97;;;11.67;;
14722;SDS011;7452;55.594;12.986;2022-10-01T00:47:15;12.83;;;11.63;;
14722;SDS011;7452;55.594;12.986;2022-10-01T00:49:53;11.70;;;10.60;;
14722;SDS011;7452;55.594;12.986;2022-10-01T00:52:27;12.97;;;11.57;;
14722;SDS011;7452;55.594;12.986;2022-10-01T00:54:58;13.77;;;11.57;;
14722;SDS011;7452;55.594;12.986;2022-10-01T00:57:29;13.50;;;12.10;;
14722;SDS011;7452;55.594;12.986;2022-10-01T01:00:00;13.63;;;12.10;;
14722;SDS011;7452;55.594;12.986;2022-10-01T01:02:31;15.50;;;11.67;;
14722;SDS011;7452;55.594;12.986;2022-10-01T01:05:01;12.03;;;10.83;;
14722;SDS011;7452;55.594;12.986;2022-10-01T01:07:30;12.13;;;11.03;;
14722;SDS011;7452;55.594;12.986;2022-10-01T01:09:58;12.30;;;11.10;;
14722;SDS011;7452;55.594;12.986;2022-10-01T01:12:32;13.00;;;11.00;;
14722;SDS011;7452;55.594;12.986;2022-10-01T01:15:09;13.30;;;11.50;;
14722;SDS011;7452;55.594;12.986;2022-10-01T01:17:42;11.93;;;10.70;;
14722;SDS011;7452;55.594;12.986;2022-10-01T01:23:27;11.30;;;10.33;;
14722;SDS011;7452;55.594;12.986;2022-10-01T01:26:10;11.87;;;10.67;;
14722;SDS011;7452;55.594;12.986;2022-10-01T01:28:49;12.30;;;10.87;;
14722;SDS011;7452;55.594;12.986;2022-10-01T01:31:22;12.30;;;11.00;;
14722;SDS011;7452;55.594;12.986;2022-10-01T01:33:53;11.43;;;10.43;;
14722;SDS011;7452;55.594;12.986;2022-10-01T01:36:23;11.73;;;10.43;;
14722;SDS011;7452;55.594;12.986;2022-10-01T01:39:02;12.33;;;11.03;;
14722;SDS011;7452;55.594;12.986;2022-10-01T01:41:36;12.27;;;10.63;;
14722;SDS011;7452;55.594;12.986;2022-10-01T01:44:10;13.97;;;11.00;;
14722;SDS011;7452;55.594;12.986;2022-10-01T01:46:42;14.03;;;10.80;;
14722;SDS011;7452;55.594;12.986;2022-10-01T01:49:13;12.20;;;10.93;;
14722;SDS011;7452;55.594;12.986;2022-10-01T01:51:44;12.20;;;11.10;;
14722;SDS011;7452;55.594;12.986;2022-10-01T01:54:19;12.57;;;11.27;;
14722;SDS011;7452;55.594;12.986;2022-10-01T01:56:50;13.27;;;11.50;;
14722;SDS011;7452;55.594;12.986;2022-10-01T01:59:20;12.40;;;11.20;;
14722;SDS011;7452;55.594;12.986;2022-10-01T02:01:51;12.70;;;11.57;;
14722;SDS011;7452;55.594;12.986;2022-10-01T02:04:23;12.83;;;11.23;;
14722;SDS011;7452;55.594;12.986;2022-10-01T02:07:11;16.67;;;11.43;;
14722;SDS011;7452;55.594;12.986;2022-10-01T02:09:52;12.03;;;10.93;;
14722;SDS011;7452;55.594;12.986;2022-10-01T02:12:35;11.93;;;10.73;;
14722;SDS011;7452;55.594;12.986;2022-10-01T02:15:19;12.70;;;10.53;;
14722;SDS011;7452;55.594;12.986;2022-10-01T02:17:55;11.80;;;10.60;;
14722;SDS011;7452;55.594;12.986;2022-10-01T02:20:28;12.07;;;10.87;;
14722;SDS011;7452;55.594;12.986;2022-10-01T02:23:01;11.77;;;10.50;;
14722;SDS011;7452;55.594;12.986;2022-10-01T02:25:35;11.33;;;10.17;;
14722;SDS011;7452;55.594;12.986;2022-10-01T02:28:06;9.60;;;8.60;;
14722;SDS011;7452;55.594;12.986;2022-10-01T02:30:37;10.03;;;8.97;;
14722;SDS011;7452;55.594;12.986;2022-10-01T02:33:06;11.43;;;8.87;;
14722;SDS011;7452;55.594;12.986;2022-10-01T02:35:38;9.57;;;7.97;;
14722;SDS011;7452;55.594;12.986;2022-10-01T02:38:08;8.50;;;7.70;;
14722;SDS011;7452;55.594;12.986;2022-10-01T02:40:38;9.80;;;8.77;;
14722;SDS011;7452;55.594;12.986;2022-10-01T02:43:10;8.50;;;7.70;;
14722;SDS011;7452;55.594;12.986;2022-10-01T02:45:47;9.90;;;7.50;;
14722;SDS011;7452;55.594;12.986;2022-10-01T02:48:21;7.80;;;7.10;;
14722;SDS011;7452;55.594;12.986;2022-10-01T02:50:50;8.03;;;7.27;;
14722;SDS011;7452;55.594;12.986;2022-10-01T02:53:19;7.30;;;6.60;;
14722;SDS011;7452;55.594;12.986;2022-10-01T02:55:50;7.10;;;6.40;;
14722;SDS011;7452;55.594;12.986;2022-10-01T02:58:19;7.23;;;6.43;;
14722;SDS011;7452;55.594;12.986;2022-10-01T03:00:51;7.60;;;6.53;;
14722;SDS011;7452;55.594;12.986;2022-10-01T03:03:19;7.23;;;5.90;;
14722;SDS011;7452;55.594;12.986;2022-10-01T03:05:50;8.43;;;6.30;;
14722;SDS011;7452;55.594;12.986;2022-10-01T03:08:20;8.30;;;5.53;;
14722;SDS011;7452;55.594;12.986;2022-10-01T03:10:51;6.63;;;5.60;;
14722;SDS011;7452;55.594;12.986;2022-10-01T03:13:18;6.07;;;5.57;;
14722;SDS011;7452;55.594;12.986;2022-10-01T03:15:49;5.70;;;5.20;;
14722;SDS011;7452;55.594;12.986;2022-10-01T03:18:17;5.53;;;5.03;;
14722;SDS011;7452;55.594;12.986;2022-10-01T03:20:49;7.87;;;5.27;;
14722;SDS011;7452;55.594;12.986;2022-10-01T03:23:23;6.07;;;5.17;;
14722;SDS011;7452;55.594;12.986;2022-10-01T03:25:51;7.70;;;5.63;;
14722;SDS011;7452;55.594;12.986;2022-10-01T03:28:19;5.57;;;4.87;;
14722;SDS011;7452;55.594;12.986;2022-10-01T03:30:50;6.30;;;5.33;;
14722;SDS011;7452;55.594;12.986;2022-10-01T03:33:17;6.27;;;4.87;;
14722;SDS011;7452;55.594;12.986;2022-10-01T03:35:45;5.60;;;4.73;;
14722;SDS011;7452;55.594;12.986;2022-10-01T03:38:14;5.90;;;4.93;;
14722;SDS011;7452;55.594;12.986;2022-10-01T03:40:41;6.47;;;4.53;;
14722;SDS011;7452;55.594;12.986;2022-10-01T03:43:10;4.63;;;4.17;;
14722;SDS011;7452;55.594;12.986;2022-10-01T03:45:39;5.50;;;4.70;;
14722;SDS011;7452;55.594;12.986;2022-10-01T03:48:10;5.73;;;4.20;;
14722;SDS011;7452;55.594;12.986;2022-10-01T03:50:37;4.67;;;3.83;;
14722;SDS011;7452;55.594;12.986;2022-10-01T03:53:05;5.50;;;3.97;;
14722;SDS011;7452;55.594;12.986;2022-10-01T03:55:32;4.63;;;4.13;;
14722;SDS011;7452;55.594;12.986;2022-10-01T03:58:04;6.23;;;4.37;;
14722;SDS011;7452;55.594;12.986;2022-10-01T04:00:33;4.40;;;4.00;;
14722;SDS011;7452;55.594;12.986;2022-10-01T04:03:01;5.60;;;4.03;;
14722;SDS011;7452;55.594;12.986;2022-10-01T04:05:34;4.63;;;4.23;;
14722;SDS011;7452;55.594;12.986;2022-10-01T04:08:02;6.30;;;4.27;;
14722;SDS011;7452;55.594;12.986;2022-10-01T04:10:29;7.93;;;4.20;;
14722;SDS011;7452;55.594;12.986;2022-10-01T04:12:57;4.93;;;4.47;;
14722;SDS011;7452;55.594;12.986;2022-10-01T04:15:26;5.13;;;4.20;;
14722;SDS011;7452;55.594;12.986;2022-10-01T04:17:54;6.07;;;3.87;;
14722;SDS011;7452;55.594;12.986;2022-10-01T04:20:22;9.53;;;4.37;;
14722;SDS011;7452;55.594;12.986;2022-10-01T04:22:53;5.30;;;4.80;;
14722;SDS011;7452;55.594;12.986;2022-10-01T04:25:21;5.47;;;4.80;;
14722;SDS011;7452;55.594;12.986;2022-10-01T04:27:55;5.97;;;4.90;;
14722;SDS011;7452;55.594;12.986;2022-10-01T04:30:25;6.33;;;5.00;;
14722;SDS011;7452;55.594;12.986;2022-10-01T04:32:53;4.47;;;4.07;;
14722;SDS011;7452;55.594;12.986;2022-10-01T04:35:24;5.67;;;4.57;;
14722;SDS011;7452;55.594;12.986;2022-10-01T04:37:58;5.27;;;4.40;;
14722;SDS011;7452;55.594;12.986;2022-10-01T04:40:28;7.67;;;4.60;;
14722;SDS011;7452;55.594;12.986;2022-10-01T04:42:56;5.57;;;4.50;;
14722;SDS011;7452;55.594;12.986;2022-10-01T04:45:24;5.87;;;4.90;;
14722;SDS011;7452;55.594;12.986;2022-10-01T04:47:55;6.53;;;4.20;;
14722;SDS011;7452;55.594;12.986;2022-10-01T04:50:23;6.50;;;4.70;;
14722;SDS011;7452;55.594;12.986;2022-10-01T04:52:51;6.00;;;4.43;;
14722;SDS011;7452;55.594;12.986;2022-10-01T04:55:22;5.77;;;4.73;;
14722;SDS011;7452;55.594;12.986;2022-10-01T04:57:50;6.07;;;4.50;;
14722;SDS011;7452;55.594;12.986;2022-10-01T05:00:20;5.17;;;4.53;;
14722;SDS011;7452;55.594;12.986;2022-10-01T05:02:51;4.80;;;4.40;;
14722;SDS011;7452;55.594;12.986;2022-10-01T05:05:19;6.77;;;4.70;;
14722;SDS011;7452;55.594;12.986;2022-10-01T05:07:48;6.53;;;4.63;;
14722;SDS011;7452;55.594;12.986;2022-10-01T05:10:17;6.43;;;4.47;;
14722;SDS011;7452;55.594;12.986;2022-10-01T05:12:48;4.90;;;4.40;;
14722;SDS011;7452;55.594;12.986;2022-10-01T05:15:16;5.33;;;4.27;;
14722;SDS011;7452;55.594;12.986;2022-10-01T05:17:45;4.93;;;4.20;;
14722;SDS011;7452;55.594;12.986;2022-10-01T05:20:14;6.70;;;4.10;;
14722;SDS011;7452;55.594;12.986;2022-10-01T05:22:45;7.40;;;4.13;;
14722;SDS011;7452;55.594;12.986;2022-10-01T05:25:13;5.87;;;4.13;;
14722;SDS011;7452;55.594;12.986;2022-10-01T05:27:41;7.70;;;4.00;;
14722;SDS011;7452;55.594;12.986;2022-10-01T05:30:12;10.53;;;4.30;;
14722;SDS011;7452;55.594;12.986;2022-10-01T05:32:52;6.03;;;4.23;;
14722;SDS011;7452;55.594;12.986;2022-10-01T05:35:21;5.30;;;4.10;;
14722;SDS011;7452;55.594;12.986;2022-10-01T05:37:51;8.47;;;4.70;;
14722;SDS011;7452;55.594;12.986;2022-10-01T05:40:19;5.40;;;4.00;;
14722;SDS011;7452;55.594;12.986;2022-10-01T05:42:48;4.47;;;4.03;;
14722;SDS011;7452;55.594;12.986;2022-10-01T05:45:18;5.70;;;3.90;;
14722;SDS011;7452;55.594;12.986;2022-10-01T05:47:47;5.27;;;4.07;;
14722;SDS011;7452;55.594;12.986;2022-10-01T05:50:20;5.17;;;3.97;;
14722;SDS011;7452;55.594;12.986;2022-10-01T05:52:50;4.93;;;3.70;;
14722;SDS011;7452;55.594;12.986;2022-10-01T05:55:22;7.60;;;4.53;;
14722;SDS011;7452;55.594;12.986;2022-10-01T05:57:56;6.87;;;4.53;;
14722;SDS011;7452;55.594;12.986;2022-10-01T06:00:26;5.60;;;4.43;;
14722;SDS011;7452;55.594;12.986;2022-10-01T06:02:54;6.77;;;4.30;;
14722;SDS011;7452;55.594;12.986;2022-10-01T06:05:23;5.33;;;4.47;;
14722;SDS011;7452;55.594;12.986;2022-10-01T06:07:52;6.77;;;4.50;;
14722;SDS011;7452;55.594;12.986;2022-10-01T06:10:22;6.63;;;4.70;;
14722;SDS011;7452;55.594;12.986;2022-10-01T06:12:56;6.60;;;4.27;;
14722;SDS011;7452;55.594;12.986;2022-10-01T06:15:24;5.30;;;4.27;;
14722;SDS011;7452;55.594;12.986;2022-10-01T06:18:00;6.47;;;4.37;;
14722;SDS011;7452;55.594;12.986;2022-10-01T06:20:28;7.10;;;4.47;;
14722;SDS011;7452;55.594;12.986;2022-10-01T06:22:56;8.97;;;4.30;;
14722;SDS011;7452;55.594;12.986;2022-10-01T06:25:24;5.67;;;4.83;;
14722;SDS011;7452;55.594;12.986;2022-10-01T06:27:54;4.50;;;4.10;;
14722;SDS011;7452;55.594;12.986;2022-10-01T06:30:28;4.47;;;4.07;;
14722;SDS011;7452;55.594;12.986;2022-10-01T06:32:58;10.60;;;4.90;;
14722;SDS011;7452;55.594;12.986;2022-10-01T06:35:27;5.83;;;4.07;;
14722;SDS011;7452;55.594;12.986;2022-10-01T06:37:55;6.43;;;4.70;;
14722;SDS011;7452;55.594;12.986;2022-10-01T06:40:23;7.07;;;4.50;;
14722;SDS011;7452;55.594;12.986;2022-10-01T06:42:53;7.97;;;4.57;;
14722;SDS011;7452;55.594;12.986;2022-10-01T06:45:22;5.27;;;4.17;;
14722;SDS011;7452;55.594;12.986;2022-10-01T06:47:57;6.53;;;4.33;;
14722;SDS011;7452;55.594;12.986;2022-10-01T06:50:28;7.00;;;4.67;;
14722;SDS011;7452;55.594;12.986;2022-10-01T06:52:57;5.17;;;4.33;;
14722;SDS011;7452;55.594;12.986;2022-10-01T06:55:30;6.37;;;4.53;;
14722;SDS011;7452;55.594;12.986;2022-10-01T06:58:01;5.43;;;4.10;;
14722;SDS011;7452;55.594;12.986;2022-10-01T07:00:31;6.27;;;3.93;;
14722;SDS011;7452;55.594;12.986;2022-10-01T07:03:04;8.60;;;4.17;;
14722;SDS011;7452;55.594;12.986;2022-10-01T07:05:35;6.53;;;4.27;;
14722;SDS011;7452;55.594;12.986;2022-10-01T07:08:04;4.80;;;3.60;;
14722;SDS011;7452;55.594;12.986;2022-10-01T07:10:38;4.93;;;3.87;;
14722;SDS011;7452;55.594;12.986;2022-10-01T07:13:08;5.97;;;4.10;;
14722;SDS011;7452;55.594;12.986;2022-10-01T07:15:37;8.00;;;3.90;;
14722;SDS011;7452;55.594;12.986;2022-10-01T07:18:10;5.43;;;3.80;;
14722;SDS011;7452;55.594;12.986;2022-10-01T07:20:39;6.27;;;3.57;;
14722;SDS011;7452;55.594;12.986;2022-10-01T07:23:09;5.13;;;3.40;;
14722;SDS011;7452;55.594;12.986;2022-10-01T07:25:38;4.37;;;3.80;;
14722;SDS011;7452;55.594;12.986;2022-10-01T07:28:06;6.73;;;4.17;;
14722;SDS011;7452;55.594;12.986;2022-10-01T07:30:40;4.37;;;3.80;;
14722;SDS011;7452;55.594;12.986;2022-10-01T07:33:10;7.43;;;3.57;;
14722;SDS011;7452;55.594;12.986;2022-10-01T07:35:37;6.70;;;3.63;;
14722;SDS011;7452;55.594;12.986;2022-10-01T07:38:05;5.53;;;4.03;;
14722;SDS011;7452;55.594;12.986;2022-10-01T07:40:34;4.40;;;3.10;;
14722;SDS011;7452;55.594;12.986;2022-10-01T07:43:04;5.53;;;3.40;;
14722;SDS011;7452;55.594;12.986;2022-10-01T07:45:38;5.70;;;3.63;;
14722;SDS011;7452;55.594;12.986;2022-10-01T07:48:10;9.53;;;3.63;;
14722;SDS011;7452;55.594;12.986;2022-10-01T07:50:41;6.10;;;3.70;;
14722;SDS011;7452;55.594;12.986;2022-10-01T07:53:10;3.70;;;3.40;;
14722;SDS011;7452;55.594;12.986;2022-10-01T07:55:39;9.30;;;4.90;;
14722;SDS011;7452;55.594;12.986;2022-10-01T07:58:06;5.07;;;3.57;;
14722;SDS011;7452;55.594;12.986;2022-10-01T08:00:34;4.53;;;3.37;;
14722;SDS011;7452;55.594;12.986;2022-10-01T08:03:13;5.37;;;3.43;;
14722;SDS011;7452;55.594;12.986;2022-10-01T08:05:40;5.73;;;3.53;;
14722;SDS011;7452;55.594;12.986;2022-10-01T08:08:08;4.03;;;3.23;;
14722;SDS011;7452;55.594;12.986;2022-10-01T08:10:37;7.80;;;3.50;;
14722;SDS011;7452;55.594;12.986;2022-10-01T08:13:14;7.13;;;3.60;;
14722;SDS011;7452;55.594;12.986;2022-10-01T08:15:44;4.97;;;3.63;;
14722;SDS011;7452;55.594;12.986;2022-10-01T08:18:16;5.67;;;3.07;;
14722;SDS011;7452;55.594;12.986;2022-10-01T08:20:47;3.80;;;3.20;;
14722;SDS011;7452;55.594;12.986;2022-10-01T08:23:15;4.17;;;3.23;;
14722;SDS011;7452;55.594;12.986;2022-10-01T08:25:43;4.73;;;3.50;;
14722;SDS011;7452;55.594;12.986;2022-10-01T08:28:15;4.27;;;3.20;;
14722;SDS011;7452;55.594;12.986;2022-10-01T08:30:43;5.43;;;3.53;;
14722;SDS011;7452;55.594;12.986;2022-10-01T08:33:11;5.20;;;3.63;;
14722;SDS011;7452;55.594;12.986;2022-10-01T08:35:41;6.73;;;3.63;;
14722;SDS011;7452;55.594;12.986;2022-10-01T08:38:13;4.67;;;3.10;;
14722;SDS011;7452;55.594;12.986;2022-10-01T08:40:42;7.07;;;3.83;;
14722;SDS011;7452;55.594;12.986;2022-10-01T08:43:26;5.00;;;3.40;;
14722;SDS011;7452;55.594;12.986;2022-10-01T08:46:02;3.90;;;3.17;;
14722;SDS011;7452;55.594;12.986;2022-10-01T08:48:37;9.60;;;3.63;;
14722;SDS011;7452;55.594;12.986;2022-10-01T08:51:15;4.43;;;3.13;;
14722;SDS011;7452;55.594;12.986;2022-10-01T08:53:50;5.33;;;3.20;;
14722;SDS011;7452;55.594;12.986;2022-10-01T08:56:23;6.57;;;3.17;;
14722;SDS011;7452;55.594;12.986;2022-10-01T08:58:55;4.27;;;3.27;;
14722;SDS011;7452;55.594;12.986;2022-10-01T09:01:24;5.50;;;3.07;;
14722;SDS011;7452;55.594;12.986;2022-10-01T09:03:53;4.90;;;3.30;;
14722;SDS011;7452;55.594;12.986;2022-10-01T09:06:25;5.03;;;3.30;;
14722;SDS011;7452;55.594;12.986;2022-10-01T09:08:57;3.67;;;2.77;;
14722;SDS011;7452;55.594;12.986;2022-10-01T09:11:39;3.63;;;3.00;;
14722;SDS011;7452;55.594;12.986;2022-10-01T09:14:39;4.40;;;2.63;;
14722;SDS011;7452;55.594;12.986;2022-10-01T09:17:22;4.33;;;2.90;;
14722;SDS011;7452;55.594;12.986;2022-10-01T09:20:05;4.73;;;3.50;;
14722;SDS011;7452;55.594;12.986;2022-10-01T09:22:43;4.60;;;3.47;;
14722;SDS011;7452;55.594;12.986;2022-10-01T09:25:20;5.00;;;3.20;;
14722;SDS011;7452;55.594;12.986;2022-10-01T09:27:55;4.93;;;3.10;;
14722;SDS011;7452;55.594;12.986;2022-10-01T09:30:27;6.27;;;3.33;;
14722;SDS011;7452;55.594;12.986;2022-10-01T09:32:59;3.23;;;2.60;;
14722;SDS011;7452;55.594;12.986;2022-10-01T09:35:33;3.90;;;2.40;;
14722;SDS011;7452;55.594;12.986;2022-10-01T09:38:11;5.10;;;2.87;;
14722;SDS011;7452;55.594;12.986;2022-10-01T09:40:50;5.23;;;3.40;;
14722;SDS011;7452;55.594;12.986;2022-10-01T09:45:52;6.63;;;3.00;;
14722;SDS011;7452;55.594;12.986;2022-10-01T09:48:26;5.93;;;2.77;;
14722;SDS011;7452;55.594;12.986;2022-10-01T09:51:02;4.87;;;3.07;;
14722;SDS011;7452;55.594;12.986;2022-10-01T09:53:56;3.90;;;3.10;;
14722;SDS011;7452;55.594;12.986;2022-10-01T09:56:34;3.73;;;2.67;;
14722;SDS011;7452;55.594;12.986;2022-10-01T09:59:10;5.70;;;3.10;;
14722;SDS011;7452;55.594;12.986;2022-10-01T10:01:44;5.80;;;2.80;;
14722;SDS011;7452;55.594;12.986;2022-10-01T10:04:17;6.07;;;2.70;;
14722;SDS011;7452;55.594;12.986;2022-10-01T10:06:49;4.50;;;2.97;;
14722;SDS011;7452;55.594;12.986;2022-10-01T10:09:22;4.57;;;3.13;;
14722;SDS011;7452;55.594;12.986;2022-10-01T10:11:58;6.53;;;2.93;;
14722;SDS011;7452;55.594;12.986;2022-10-01T10:14:32;4.10;;;2.80;;
14722;SDS011;7452;55.594;12.986;2022-10-01T10:17:11;4.87;;;2.23;;
14722;SDS011;7452;55.594;12.986;2022-10-01T10:19:45;4.60;;;2.80;;
14722;SDS011;7452;55.594;12.986;2022-10-01T10:22:20;3.10;;;2.50;;
14722;SDS011;7452;55.594;12.986;2022-10-01T10:24:54;3.43;;;2.27;;
14722;SDS011;7452;55.594;12.986;2022-10-01T10:27:29;4.43;;;2.53;;
14722;SDS011;7452;55.594;12.986;2022-10-01T10:30:01;6.37;;;2.90;;
14722;SDS011;7452;55.594;12.986;2022-10-01T10:32:31;4.03;;;2.77;;
14722;SDS011;7452;55.594;12.986;2022-10-01T10:35:00;4.80;;;2.60;;
14722;SDS011;7452;55.594;12.986;2022-10-01T10:37:35;5.70;;;2.63;;
14722;SDS011;7452;55.594;12.986;2022-10-01T10:40:06;3.57;;;2.43;;
14722;SDS011;7452;55.594;12.986;2022-10-01T10:42:47;2.97;;;2.40;;
14722;SDS011;7452;55.594;12.986;2022-10-01T10:45:17;5.97;;;2.80;;
14722;SDS011;7452;55.594;12.986;2022-10-01T10:47:47;5.07;;;2.40;;
14722;SDS011;7452;55.594;12.986;2022-10-01T10:50:21;2.70;;;2.47;;
14722;SDS011;7452;55.594;12.986;2022-10-01T10:53:11;4.00;;;2.50;;
14722;SDS011;7452;55.594;12.986;2022-10-01T10:56:02;4.13;;;2.27;;
14722;SDS011;7452;55.594;12.986;2022-10-01T10:58:32;2.60;;;2.33;;
14722;SDS011;7452;55.594;12.986;2022-10-01T11:01:06;3.97;;;3.00;;
14722;SDS011;7452;55.594;12.986;2022-10-01T11:03:41;4.97;;;2.90;;
14722;SDS011;7452;55.594;12.986;2022-10-01T11:06:13;3.67;;;2.70;;
14722;SDS011;7452;55.594;12.986;2022-10-01T11:08:44;5.20;;;2.83;;
14722;SDS011;7452;55.594;12.986;2022-10-01T11:11:26;3.33;;;2.60;;
14722;SDS011;7452;55.594;12.986;2022-10-01T11:14:14;4.10;;;2.50;;
14722;SDS011;7452;55.594;12.986;2022-10-01T11:19:59;4.23;;;2.60;;
14722;SDS011;7452;55.594;12.986;2022-10-01T11:22:40;3.63;;;2.60;;
14722;SDS011;7452;55.594;12.986;2022-10-01T11:25:23;4.33;;;2.93;;
14722;SDS011;7452;55.594;12.986;2022-10-01T11:28:14;4.23;;;2.27;;
14722;SDS011;7452;55.594;12.986;2022-10-01T11:30:56;4.70;;;2.53;;
14722;SDS011;7452;55.594;12.986;2022-10-01T11:33:31;2.97;;;2.50;;
14722;SDS011;7452;55.594;12.986;2022-10-01T11:36:06;2.80;;;2.57;;
14722;SDS011;7452;55.594;12.986;2022-10-01T11:38:44;4.13;;;2.40;;
14722;SDS011;7452;55.594;12.986;2022-10-01T11:41:17;3.43;;;2.50;;
14722;SDS011;7452;55.594;12.986;2022-10-01T11:44:00;2.80;;;2.37;;
14722;SDS011;7452;55.594;12.986;2022-10-01T11:46:43;9.30;;;3.03;;
14722;SDS011;7452;55.594;12.986;2022-10-01T11:49:40;17.77;;;8.40;;
14722;SDS011;7452;55.594;12.986;2022-10-01T11:52:21;8.33;;;4.57;;
14722;SDS011;7452;55.594;12.986;2022-10-01T11:54:59;4.60;;;3.77;;
14722;SDS011;7452;55.594;12.986;2022-10-01T11:57:46;5.40;;;4.00;;
14722;SDS011;7452;55.594;12.986;2022-10-01T12:00:36;7.27;;;3.77;;
14722;SDS011;7452;55.594;12.986;2022-10-01T12:03:09;12.13;;;4.63;;
14722;SDS011;7452;55.594;12.986;2022-10-01T12:05:41;31.93;;;5.63;;
14722;SDS011;7452;55.594;12.986;2022-10-01T12:08:10;5.37;;;4.50;;
14722;SDS011;7452;55.594;12.986;2022-10-01T12:10:43;9.23;;;4.57;;
14722;SDS011;7452;55.594;12.986;2022-10-01T12:13:15;5.53;;;4.77;;
14722;SDS011;7452;55.594;12.986;2022-10-01T12:15:53;6.53;;;5.07;;
14722;SDS011;7452;55.594;12.986;2022-10-01T12:18:24;7.97;;;5.50;;
14722;SDS011;7452;55.594;12.986;2022-10-01T12:20:56;9.20;;;5.27;;
14722;SDS011;7452;55.594;12.986;2022-10-01T12:23:26;9.67;;;5.40;;
14722;SDS011;7452;55.594;12.986;2022-10-01T12:25:57;8.63;;;5.20;;
14722;SDS011;7452;55.594;12.986;2022-10-01T12:28:34;10.00;;;6.07;;
14722;SDS011;7452;55.594;12.986;2022-10-01T12:31:09;9.73;;;5.40;;
14722;SDS011;7452;55.594;12.986;2022-10-01T12:33:46;13.27;;;7.03;;
14722;SDS011;7452;55.594;12.986;2022-10-01T12:36:24;9.13;;;6.70;;
14722;SDS011;7452;55.594;12.986;2022-10-01T12:39:04;9.53;;;6.20;;
14722;SDS011;7452;55.594;12.986;2022-10-01T12:41:44;12.10;;;6.77;;
14722;SDS011;7452;55.594;12.986;2022-10-01T12:44:26;8.93;;;6.93;;
14722;SDS011;7452;55.594;12.986;2022-10-01T12:47:17;11.30;;;7.23;;
14722;SDS011;7452;55.594;12.986;2022-10-01T12:50:01;11.57;;;8.07;;
14722;SDS011;7452;55.594;12.986;2022-10-01T12:52:41;16.80;;;8.60;;
14722;SDS011;7452;55.594;12.986;2022-10-01T12:55:18;14.23;;;8.30;;
14722;SDS011;7452;55.594;12.986;2022-10-01T12:58:16;14.33;;;8.87;;
14722;SDS011;7452;55.594;12.986;2022-10-01T13:00:56;10.83;;;8.83;;
14722;SDS011;7452;55.594;12.986;2022-10-01T13:03:37;23.67;;;15.80;;
14722;SDS011;7452;55.594;12.986;2022-10-01T13:06:30;33.63;;;21.27;;
14722;SDS011;7452;55.594;12.986;2022-10-01T13:09:11;25.93;;;17.83;;
14722;SDS011;7452;55.594;12.986;2022-10-01T13:11:48;19.00;;;11.80;;
14722;SDS011;7452;55.594;12.986;2022-10-01T13:14:20;15.53;;;11.13;;
14722;SDS011;7452;55.594;12.986;2022-10-01T13:16:48;18.87;;;11.00;;
14722;SDS011;7452;55.594;12.986;2022-10-01T13:19:27;10.70;;;7.87;;
14722;SDS011;7452;55.594;12.986;2022-10-01T13:22:01;13.50;;;7.13;;
14722;SDS011;7452;55.594;12.986;2022-10-01T13:24:34;10.17;;;6.63;;
14722;SDS011;7452;55.594;12.986;2022-10-01T13:27:08;9.70;;;5.67;;
14722;SDS011;7452;55.594;12.986;2022-10-01T13:29:46;6.20;;;4.97;;
14722;SDS011;7452;55.594;12.986;2022-10-01T13:32:25;8.67;;;6.07;;
14722;SDS011;7452;55.594;12.986;2022-10-01T13:34:58;11.53;;;5.87;;
14722;SDS011;7452;55.594;12.986;2022-10-01T13:37:31;9.03;;;5.63;;
14722;SDS011;7452;55.594;12.986;2022-10-01T13:40:03;9.13;;;6.43;;
14722;SDS011;7452;55.594;12.986;2022-10-01T13:42:36;10.73;;;6.90;;
14722;SDS011;7452;55.594;12.986;2022-10-01T13:45:19;11.13;;;6.20;;
14722;SDS011;7452;55.594;12.986;2022-10-01T13:47:50;11.87;;;6.50;;
14722;SDS011;7452;55.594;12.986;2022-10-01T13:50:29;13.00;;;7.30;;
14722;SDS011;7452;55.594;12.986;2022-10-01T13:53:03;18.20;;;7.40;;
14722;SDS011;7452;55.594;12.986;2022-10-01T13:55:33;10.93;;;6.43;;
14722;SDS011;7452;55.594;12.986;2022-10-01T13:58:19;9.73;;;6.57;;
14722;SDS011;7452;55.594;12.986;2022-10-01T14:00:49;8.00;;;7.20;;
14722;SDS011;7452;55.594;12.986;2022-10-01T14:03:30;16.20;;;9.30;;
14722;SDS011;7452;55.594;12.986;2022-10-01T14:06:07;10.07;;;7.90;;
14722;SDS011;7452;55.594;12.986;2022-10-01T14:08:41;10.97;;;6.13;;
14722;SDS011;7452;55.594;12.986;2022-10-01T14:11:15;9.13;;;6.03;;
14722;SDS011;7452;55.594;12.986;2022-10-01T14:14:08;8.27;;;6.23;;
14722;SDS011;7452;55.594;12.986;2022-10-01T14:16:56;14.33;;;10.23;;
14722;SDS011;7452;55.594;12.986;2022-10-01T14:19:25;7.90;;;6.07;;
14722;SDS011;7452;55.594;12.986;2022-10-01T14:22:07;9.57;;;6.80;;
14722;SDS011;7452;55.594;12.986;2022-10-01T14:24:52;8.30;;;5.40;;
14722;SDS011;7452;55.594;12.986;2022-10-01T14:27:36;6.97;;;6.00;;
14722;SDS011;7452;55.594;12.986;2022-10-01T14:30:09;9.37;;;7.27;;
14722;SDS011;7452;55.594;12.986;2022-10-01T14:32:43;8.80;;;5.30;;
14722;SDS011;7452;55.594;12.986;2022-10-01T14:35:27;8.77;;;6.27;;
14722;SDS011;7452;55.594;12.986;2022-10-01T14:37:59;8.40;;;6.20;;
14722;SDS011;7452;55.594;12.986;2022-10-01T14:40:33;14.13;;;8.87;;
14722;SDS011;7452;55.594;12.986;2022-10-01T14:43:11;18.73;;;11.63;;
14722;SDS011;7452;55.594;12.986;2022-10-01T14:45:48;13.43;;;7.73;;
14722;SDS011;7452;55.594;12.986;2022-10-01T14:48:21;12.73;;;7.50;;
14722;SDS011;7452;55.594;12.986;2022-10-01T14:50:50;15.53;;;11.83;;
14722;SDS011;7452;55.594;12.986;2022-10-01T14:53:22;12.80;;;8.87;;
14722;SDS011;7452;55.594;12.986;2022-10-01T14:55:51;15.80;;;8.90;;
14722;SDS011;7452;55.594;12.986;2022-10-01T14:58:22;15.63;;;8.27;;
14722;SDS011;7452;55.594;12.986;2022-10-01T15:00:52;15.77;;;8.03;;
14722;SDS011;7452;55.594;12.986;2022-10-01T15:03:22;18.93;;;8.70;;
14722;SDS011;7452;55.594;12.986;2022-10-01T15:05:50;14.43;;;7.50;;
14722;SDS011;7452;55.594;12.986;2022-10-01T15:08:36;11.27;;;7.73;;
14722;SDS011;7452;55.594;12.986;2022-10-01T15:11:05;29.67;;;22.77;;
14722;SDS011;7452;55.594;12.986;2022-10-01T15:13:37;173.47;;;104.03;;
14722;SDS011;7452;55.594;12.986;2022-10-01T15:16:09;75.40;;;58.33;;
14722;SDS011;7452;55.594;12.986;2022-10-01T15:18:39;44.60;;;35.07;;
14722;SDS011;7452;55.594;12.986;2022-10-01T15:21:10;21.50;;;16.73;;
14722;SDS011;7452;55.594;12.986;2022-10-01T15:23:44;92.50;;;66.63;;
14722;SDS011;7452;55.594;12.986;2022-10-01T15:26:13;18.00;;;14.77;;